This is the latest recevied weather packets stored in our database for station/object ZL1CTS-13. If no packets are shown the sender has not sent any weather packets the latest 10 day(s).
| Time | Temp. | Humidity | Pressure | Rain* | Wind** | Luminosity | Snow |
|---|---|---|---|---|---|---|---|
| 1777933804 | 20.56° C | 62% | 1023.4 hPa | 0 mm | - | - | - |
| 1777933204 | 20.56° C | 62% | 1023.4 hPa | 0 mm | - | - | - |
| 1777932604 | 20° C | 64% | 1023.4 hPa | 0 mm | - | - | - |
| 1777932004 | 20° C | 67% | 1023.4 hPa | 0 mm | - | - | - |
| 1777931404 | 18.89° C | 72% | 1023.4 hPa | 0 mm | - | - | - |
| 1777930803 | 18.33° C | 75% | 1023.4 hPa | 0 mm | - | - | - |
| 1777930207 | 16.67° C | 83% | 1023.4 hPa | 0 mm | - | - | - |
| 1777929606 | 14.44° C | 87% | 1023.5 hPa | 0 mm | - | - | - |
| 1777929005 | 13.89° C | 89% | 1023.5 hPa | 0 mm | - | - | - |
| 1777928405 | 13.33° C | 90% | 1023.4 hPa | 0 mm | - | - | - |
| 1777927805 | 12.78° C | 90% | 1023.4 hPa | 0 mm | - | - | - |
| 1777927205 | 12.22° C | 90% | 1023.3 hPa | 0 mm | - | - | - |
| 1777926605 | 12.22° C | 90% | 1023.5 hPa | 0 mm | - | - | - |
| 1777926005 | 11.67° C | 91% | 1023.3 hPa | 0 mm | - | - | - |
| 1777925405 | 11.67° C | 90% | 1023.5 hPa | 0 mm | - | - | - |
| 1777924803 | 11.67° C | 90% | 1023.3 hPa | 0 mm | - | - | - |
| 1777924204 | 11.67° C | 90% | 1023.3 hPa | 0 mm | - | - | - |
| 1777923604 | 11.67° C | 90% | 1023.3 hPa | 0 mm | - | - | - |
| 1777923004 | 11.67° C | 91% | 1023.3 hPa | 0 mm | - | - | - |
| 1777922404 | 11.11° C | 92% | 1023.3 hPa | 0 mm | - | - | - |
| 1777921804 | 11.11° C | 92% | 1023.3 hPa | 0 mm | - | - | - |
| 1777921205 | 11.11° C | 93% | 1023.3 hPa | 0 mm | - | - | - |
| 1777920604 | 11.11° C | 93% | 1023.2 hPa | 0 mm | - | - | - |
| 1777920004 | 11.11° C | 93% | 1023.3 hPa | 0 mm | - | - | - |
| 1777919404 | 11.11° C | 94% | 1023.2 hPa | 0 mm | - | - | - |
* Rain latest hour (hover to see other rain measurements)
** Current wind speed in m/s (hover to see current wind gust speed)